sensor_id;sensor_type;location;lat;lon;timestamp;P1;durP1;ratioP1;P2;durP2;ratioP2
62058;SDS011;48017;51.064;7.014;2022-07-25T00:01:11;10.10;;;5.43;;
62058;SDS011;48017;51.064;7.014;2022-07-25T00:03:36;5.43;;;4.93;;
62058;SDS011;48017;51.064;7.014;2022-07-25T00:06:01;6.57;;;5.03;;
62058;SDS011;48017;51.064;7.014;2022-07-25T00:08:27;6.82;;;4.95;;
62058;SDS011;48017;51.064;7.014;2022-07-25T00:10:52;7.70;;;5.32;;
62058;SDS011;48017;51.064;7.014;2022-07-25T00:13:18;8.50;;;4.90;;
62058;SDS011;48017;51.064;7.014;2022-07-25T00:15:43;5.55;;;4.70;;
62058;SDS011;48017;51.064;7.014;2022-07-25T00:18:08;6.75;;;5.15;;
62058;SDS011;48017;51.064;7.014;2022-07-25T00:20:34;7.53;;;5.40;;
62058;SDS011;48017;51.064;7.014;2022-07-25T00:22:59;5.57;;;4.60;;
62058;SDS011;48017;51.064;7.014;2022-07-25T00:25:25;7.15;;;5.18;;
62058;SDS011;48017;51.064;7.014;2022-07-25T00:27:50;7.40;;;5.22;;
62058;SDS011;48017;51.064;7.014;2022-07-25T00:30:16;7.53;;;5.20;;
62058;SDS011;48017;51.064;7.014;2022-07-25T00:32:41;7.82;;;5.07;;
62058;SDS011;48017;51.064;7.014;2022-07-25T00:35:07;6.35;;;4.93;;
62058;SDS011;48017;51.064;7.014;2022-07-25T00:37:32;6.28;;;5.20;;
62058;SDS011;48017;51.064;7.014;2022-07-25T00:39:58;6.30;;;5.07;;
62058;SDS011;48017;51.064;7.014;2022-07-25T00:42:23;6.70;;;5.30;;
62058;SDS011;48017;51.064;7.014;2022-07-25T00:44:48;7.15;;;5.30;;
62058;SDS011;48017;51.064;7.014;2022-07-25T00:47:14;10.25;;;5.32;;
62058;SDS011;48017;51.064;7.014;2022-07-25T00:49:40;6.85;;;5.18;;
62058;SDS011;48017;51.064;7.014;2022-07-25T00:52:05;7.43;;;5.15;;
62058;SDS011;48017;51.064;7.014;2022-07-25T00:54:31;6.95;;;5.30;;
62058;SDS011;48017;51.064;7.014;2022-07-25T00:56:56;6.03;;;5.43;;
62058;SDS011;48017;51.064;7.014;2022-07-25T00:59:22;7.78;;;5.38;;
62058;SDS011;48017;51.064;7.014;2022-07-25T01:01:47;8.90;;;5.43;;
62058;SDS011;48017;51.064;7.014;2022-07-25T01:04:13;8.55;;;5.30;;
62058;SDS011;48017;51.064;7.014;2022-07-25T01:06:39;7.28;;;5.22;;
62058;SDS011;48017;51.064;7.014;2022-07-25T01:09:05;7.40;;;5.30;;
62058;SDS011;48017;51.064;7.014;2022-07-25T01:11:31;8.40;;;4.95;;
62058;SDS011;48017;51.064;7.014;2022-07-25T01:13:56;6.47;;;5.30;;
62058;SDS011;48017;51.064;7.014;2022-07-25T01:16:22;7.68;;;5.55;;
62058;SDS011;48017;51.064;7.014;2022-07-25T01:18:47;7.10;;;5.30;;
62058;SDS011;48017;51.064;7.014;2022-07-25T01:21:13;7.28;;;5.10;;
62058;SDS011;48017;51.064;7.014;2022-07-25T01:23:38;7.00;;;5.22;;
62058;SDS011;48017;51.064;7.014;2022-07-25T01:26:04;9.00;;;5.30;;
62058;SDS011;48017;51.064;7.014;2022-07-25T01:28:29;5.60;;;4.93;;
62058;SDS011;48017;51.064;7.014;2022-07-25T01:30:55;6.43;;;5.10;;
62058;SDS011;48017;51.064;7.014;2022-07-25T01:33:20;7.97;;;5.57;;
62058;SDS011;48017;51.064;7.014;2022-07-25T01:35:47;6.13;;;5.30;;
62058;SDS011;48017;51.064;7.014;2022-07-25T01:38:13;6.93;;;5.90;;
62058;SDS011;48017;51.064;7.014;2022-07-25T01:40:39;7.57;;;5.47;;
62058;SDS011;48017;51.064;7.014;2022-07-25T01:43:05;8.27;;;5.60;;
62058;SDS011;48017;51.064;7.014;2022-07-25T01:45:31;7.75;;;5.60;;
62058;SDS011;48017;51.064;7.014;2022-07-25T01:47:57;8.10;;;5.80;;
62058;SDS011;48017;51.064;7.014;2022-07-25T01:50:22;7.30;;;5.72;;
62058;SDS011;48017;51.064;7.014;2022-07-25T01:52:48;7.45;;;5.60;;
62058;SDS011;48017;51.064;7.014;2022-07-25T01:55:13;7.28;;;5.65;;
62058;SDS011;48017;51.064;7.014;2022-07-25T01:57:39;9.20;;;5.90;;
62058;SDS011;48017;51.064;7.014;2022-07-25T02:00:05;8.00;;;5.45;;
62058;SDS011;48017;51.064;7.014;2022-07-25T02:02:33;6.25;;;5.45;;
62058;SDS011;48017;51.064;7.014;2022-07-25T02:04:58;6.60;;;5.78;;
62058;SDS011;48017;51.064;7.014;2022-07-25T02:07:23;8.43;;;6.15;;
62058;SDS011;48017;51.064;7.014;2022-07-25T02:09:49;10.82;;;5.72;;
62058;SDS011;48017;51.064;7.014;2022-07-25T02:12:14;11.18;;;6.15;;
62058;SDS011;48017;51.064;7.014;2022-07-25T02:14:40;8.07;;;6.25;;
62058;SDS011;48017;51.064;7.014;2022-07-25T02:17:05;10.10;;;5.90;;
62058;SDS011;48017;51.064;7.014;2022-07-25T02:19:31;7.95;;;6.30;;
62058;SDS011;48017;51.064;7.014;2022-07-25T02:21:56;11.45;;;6.03;;
62058;SDS011;48017;51.064;7.014;2022-07-25T02:24:22;8.10;;;5.72;;
62058;SDS011;48017;51.064;7.014;2022-07-25T02:26:47;8.13;;;6.10;;
62058;SDS011;48017;51.064;7.014;2022-07-25T02:29:12;7.63;;;6.00;;
62058;SDS011;48017;51.064;7.014;2022-07-25T02:31:38;10.13;;;6.28;;
62058;SDS011;48017;51.064;7.014;2022-07-25T02:34:03;6.75;;;5.80;;
62058;SDS011;48017;51.064;7.014;2022-07-25T02:36:29;7.88;;;6.05;;
62058;SDS011;48017;51.064;7.014;2022-07-25T02:38:54;9.90;;;6.03;;
62058;SDS011;48017;51.064;7.014;2022-07-25T02:41:19;8.25;;;6.00;;
62058;SDS011;48017;51.064;7.014;2022-07-25T02:43:45;11.60;;;6.10;;
62058;SDS011;48017;51.064;7.014;2022-07-25T02:46:10;7.47;;;6.15;;
62058;SDS011;48017;51.064;7.014;2022-07-25T02:48:35;9.57;;;5.88;;
62058;SDS011;48017;51.064;7.014;2022-07-25T02:51:01;8.85;;;5.70;;
62058;SDS011;48017;51.064;7.014;2022-07-25T02:53:26;6.80;;;5.97;;
62058;SDS011;48017;51.064;7.014;2022-07-25T02:55:52;9.25;;;6.07;;
62058;SDS011;48017;51.064;7.014;2022-07-25T02:58:17;10.27;;;6.35;;
62058;SDS011;48017;51.064;7.014;2022-07-25T03:00:42;10.25;;;6.00;;
62058;SDS011;48017;51.064;7.014;2022-07-25T03:03:08;11.27;;;6.15;;
62058;SDS011;48017;51.064;7.014;2022-07-25T03:05:33;11.77;;;6.40;;
62058;SDS011;48017;51.064;7.014;2022-07-25T03:07:59;7.82;;;5.85;;
62058;SDS011;48017;51.064;7.014;2022-07-25T03:10:24;7.20;;;6.00;;
62058;SDS011;48017;51.064;7.014;2022-07-25T03:12:50;10.70;;;6.45;;
62058;SDS011;48017;51.064;7.014;2022-07-25T03:15:15;7.40;;;6.00;;
62058;SDS011;48017;51.064;7.014;2022-07-25T03:17:40;14.75;;;9.18;;
62058;SDS011;48017;51.064;7.014;2022-07-25T03:20:06;6.63;;;5.93;;
62058;SDS011;48017;51.064;7.014;2022-07-25T03:22:32;7.25;;;6.30;;
62058;SDS011;48017;51.064;7.014;2022-07-25T03:24:58;9.57;;;6.25;;
62058;SDS011;48017;51.064;7.014;2022-07-25T03:27:23;10.75;;;6.22;;
62058;SDS011;48017;51.064;7.014;2022-07-25T03:29:48;8.77;;;6.05;;
62058;SDS011;48017;51.064;7.014;2022-07-25T03:32:14;8.90;;;6.10;;
62058;SDS011;48017;51.064;7.014;2022-07-25T03:34:39;10.82;;;6.40;;
62058;SDS011;48017;51.064;7.014;2022-07-25T03:37:05;8.07;;;6.45;;
62058;SDS011;48017;51.064;7.014;2022-07-25T03:39:31;8.40;;;6.32;;
62058;SDS011;48017;51.064;7.014;2022-07-25T03:41:57;8.95;;;6.68;;
62058;SDS011;48017;51.064;7.014;2022-07-25T03:44:23;10.52;;;6.60;;
62058;SDS011;48017;51.064;7.014;2022-07-25T03:46:50;7.93;;;6.55;;
62058;SDS011;48017;51.064;7.014;2022-07-25T03:49:16;11.93;;;6.40;;
62058;SDS011;48017;51.064;7.014;2022-07-25T03:51:41;10.55;;;6.35;;
62058;SDS011;48017;51.064;7.014;2022-07-25T03:54:07;15.88;;;10.13;;
62058;SDS011;48017;51.064;7.014;2022-07-25T03:56:38;10.07;;;6.50;;
62058;SDS011;48017;51.064;7.014;2022-07-25T03:59:09;8.63;;;6.18;;
62058;SDS011;48017;51.064;7.014;2022-07-25T04:04:02;7.55;;;6.03;;
62058;SDS011;48017;51.064;7.014;2022-07-25T04:06:28;8.27;;;6.45;;
62058;SDS011;48017;51.064;7.014;2022-07-25T04:08:53;7.30;;;6.18;;
62058;SDS011;48017;51.064;7.014;2022-07-25T04:11:20;14.05;;;6.03;;
62058;SDS011;48017;51.064;7.014;2022-07-25T04:13:46;8.63;;;6.05;;
62058;SDS011;48017;51.064;7.014;2022-07-25T04:16:12;8.00;;;5.95;;
62058;SDS011;48017;51.064;7.014;2022-07-25T04:18:39;10.90;;;6.10;;
62058;SDS011;48017;51.064;7.014;2022-07-25T04:21:05;6.50;;;5.65;;
62058;SDS011;48017;51.064;7.014;2022-07-25T04:23:31;7.90;;;5.85;;
62058;SDS011;48017;51.064;7.014;2022-07-25T04:25:56;7.70;;;6.18;;
62058;SDS011;48017;51.064;7.014;2022-07-25T04:28:23;10.75;;;8.65;;
62058;SDS011;48017;51.064;7.014;2022-07-25T04:30:49;35.47;;;22.98;;
62058;SDS011;48017;51.064;7.014;2022-07-25T04:33:15;8.15;;;6.50;;
62058;SDS011;48017;51.064;7.014;2022-07-25T04:35:41;8.95;;;6.30;;
62058;SDS011;48017;51.064;7.014;2022-07-25T04:38:06;7.10;;;5.88;;
62058;SDS011;48017;51.064;7.014;2022-07-25T04:40:32;17.73;;;5.85;;
62058;SDS011;48017;51.064;7.014;2022-07-25T04:42:57;10.02;;;6.18;;
62058;SDS011;48017;51.064;7.014;2022-07-25T04:45:22;8.63;;;5.90;;
62058;SDS011;48017;51.064;7.014;2022-07-25T04:47:48;10.18;;;6.20;;
62058;SDS011;48017;51.064;7.014;2022-07-25T04:50:14;15.52;;;5.72;;
62058;SDS011;48017;51.064;7.014;2022-07-25T04:52:40;14.13;;;6.90;;
62058;SDS011;48017;51.064;7.014;2022-07-25T04:55:06;13.30;;;6.25;;
62058;SDS011;48017;51.064;7.014;2022-07-25T04:57:32;12.15;;;6.20;;
62058;SDS011;48017;51.064;7.014;2022-07-25T04:59:57;11.32;;;6.55;;
62058;SDS011;48017;51.064;7.014;2022-07-25T05:02:23;10.90;;;6.32;;
62058;SDS011;48017;51.064;7.014;2022-07-25T05:04:49;14.85;;;6.60;;
62058;SDS011;48017;51.064;7.014;2022-07-25T05:07:15;9.75;;;6.03;;
62058;SDS011;48017;51.064;7.014;2022-07-25T05:09:40;13.10;;;6.28;;
62058;SDS011;48017;51.064;7.014;2022-07-25T05:12:06;13.55;;;6.63;;
62058;SDS011;48017;51.064;7.014;2022-07-25T05:14:31;7.85;;;6.18;;
62058;SDS011;48017;51.064;7.014;2022-07-25T05:16:57;18.73;;;6.40;;
62058;SDS011;48017;51.064;7.014;2022-07-25T05:19:22;11.73;;;6.75;;
62058;SDS011;48017;51.064;7.014;2022-07-25T05:21:47;10.57;;;6.22;;
62058;SDS011;48017;51.064;7.014;2022-07-25T05:24:13;8.85;;;6.03;;
62058;SDS011;48017;51.064;7.014;2022-07-25T05:26:38;8.05;;;5.80;;
62058;SDS011;48017;51.064;7.014;2022-07-25T05:29:04;12.90;;;5.80;;
62058;SDS011;48017;51.064;7.014;2022-07-25T05:31:29;12.15;;;5.97;;
62058;SDS011;48017;51.064;7.014;2022-07-25T05:33:55;11.38;;;5.70;;
62058;SDS011;48017;51.064;7.014;2022-07-25T05:36:20;14.30;;;5.43;;
62058;SDS011;48017;51.064;7.014;2022-07-25T05:38:45;15.68;;;5.90;;
62058;SDS011;48017;51.064;7.014;2022-07-25T05:41:11;10.63;;;5.75;;
62058;SDS011;48017;51.064;7.014;2022-07-25T05:43:36;8.27;;;5.82;;
62058;SDS011;48017;51.064;7.014;2022-07-25T05:46:02;10.93;;;5.72;;
62058;SDS011;48017;51.064;7.014;2022-07-25T05:48:29;7.25;;;5.55;;
62058;SDS011;48017;51.064;7.014;2022-07-25T05:50:55;11.55;;;5.70;;
62058;SDS011;48017;51.064;7.014;2022-07-25T05:55:48;8.60;;;5.63;;
62058;SDS011;48017;51.064;7.014;2022-07-25T05:58:14;8.23;;;5.35;;
62058;SDS011;48017;51.064;7.014;2022-07-25T06:00:39;7.57;;;5.53;;
62058;SDS011;48017;51.064;7.014;2022-07-25T06:03:04;12.63;;;5.57;;
62058;SDS011;48017;51.064;7.014;2022-07-25T06:05:30;8.68;;;5.55;;
62058;SDS011;48017;51.064;7.014;2022-07-25T06:07:55;13.77;;;5.93;;
62058;SDS011;48017;51.064;7.014;2022-07-25T06:10:21;8.65;;;5.40;;
62058;SDS011;48017;51.064;7.014;2022-07-25T06:12:47;9.90;;;5.20;;
62058;SDS011;48017;51.064;7.014;2022-07-25T06:15:12;8.30;;;5.32;;
62058;SDS011;48017;51.064;7.014;2022-07-25T06:17:38;12.43;;;5.35;;
62058;SDS011;48017;51.064;7.014;2022-07-25T06:20:03;8.70;;;5.70;;
62058;SDS011;48017;51.064;7.014;2022-07-25T06:22:29;8.55;;;5.85;;
62058;SDS011;48017;51.064;7.014;2022-07-25T06:24:55;7.88;;;5.53;;
62058;SDS011;48017;51.064;7.014;2022-07-25T06:27:21;11.60;;;5.85;;
62058;SDS011;48017;51.064;7.014;2022-07-25T06:29:46;19.67;;;6.00;;
62058;SDS011;48017;51.064;7.014;2022-07-25T06:32:12;9.38;;;5.70;;
62058;SDS011;48017;51.064;7.014;2022-07-25T06:37:16;8.52;;;5.50;;
62058;SDS011;48017;51.064;7.014;2022-07-25T06:39:41;7.95;;;5.28;;
62058;SDS011;48017;51.064;7.014;2022-07-25T06:42:06;11.48;;;5.95;;
62058;SDS011;48017;51.064;7.014;2022-07-25T06:44:32;10.15;;;5.97;;
62058;SDS011;48017;51.064;7.014;2022-07-25T06:47:00;9.75;;;5.82;;
62058;SDS011;48017;51.064;7.014;2022-07-25T06:49:26;8.25;;;5.80;;
62058;SDS011;48017;51.064;7.014;2022-07-25T06:51:52;10.02;;;5.88;;
62058;SDS011;48017;51.064;7.014;2022-07-25T06:54:17;17.40;;;5.90;;
62058;SDS011;48017;51.064;7.014;2022-07-25T06:56:43;12.02;;;5.85;;
62058;SDS011;48017;51.064;7.014;2022-07-25T06:59:09;8.18;;;5.70;;
62058;SDS011;48017;51.064;7.014;2022-07-25T07:01:34;9.75;;;6.15;;
62058;SDS011;48017;51.064;7.014;2022-07-25T07:04:00;8.90;;;6.63;;
62058;SDS011;48017;51.064;7.014;2022-07-25T07:06:26;10.93;;;6.45;;
62058;SDS011;48017;51.064;7.014;2022-07-25T07:08:51;9.07;;;6.10;;
62058;SDS011;48017;51.064;7.014;2022-07-25T07:11:17;14.18;;;6.20;;
62058;SDS011;48017;51.064;7.014;2022-07-25T07:13:42;7.88;;;5.90;;
62058;SDS011;48017;51.064;7.014;2022-07-25T07:16:08;10.07;;;5.60;;
62058;SDS011;48017;51.064;7.014;2022-07-25T07:18:34;12.02;;;5.68;;
62058;SDS011;48017;51.064;7.014;2022-07-25T07:21:00;9.48;;;6.00;;
62058;SDS011;48017;51.064;7.014;2022-07-25T07:23:26;9.13;;;5.78;;
62058;SDS011;48017;51.064;7.014;2022-07-25T07:25:51;10.88;;;5.75;;
62058;SDS011;48017;51.064;7.014;2022-07-25T07:28:17;9.05;;;5.53;;
62058;SDS011;48017;51.064;7.014;2022-07-25T07:30:43;8.95;;;5.68;;
62058;SDS011;48017;51.064;7.014;2022-07-25T07:33:08;11.40;;;5.50;;
62058;SDS011;48017;51.064;7.014;2022-07-25T07:35:33;8.98;;;5.45;;
62058;SDS011;48017;51.064;7.014;2022-07-25T07:37:59;11.82;;;5.65;;
62058;SDS011;48017;51.064;7.014;2022-07-25T07:40:24;8.75;;;5.10;;
62058;SDS011;48017;51.064;7.014;2022-07-25T07:42:51;9.88;;;5.72;;
62058;SDS011;48017;51.064;7.014;2022-07-25T07:45:18;13.50;;;5.33;;
62058;SDS011;48017;51.064;7.014;2022-07-25T07:47:46;10.13;;;5.40;;
62058;SDS011;48017;51.064;7.014;2022-07-25T07:50:13;15.65;;;5.45;;
62058;SDS011;48017;51.064;7.014;2022-07-25T07:55:05;9.45;;;5.20;;
62058;SDS011;48017;51.064;7.014;2022-07-25T07:57:49;8.38;;;5.53;;
62058;SDS011;48017;51.064;7.014;2022-07-25T08:00:15;11.10;;;5.50;;
62058;SDS011;48017;51.064;7.014;2022-07-25T08:02:42;9.75;;;5.50;;
62058;SDS011;48017;51.064;7.014;2022-07-25T08:05:11;8.98;;;5.47;;
62058;SDS011;48017;51.064;7.014;2022-07-25T08:07:37;9.55;;;5.40;;
62058;SDS011;48017;51.064;7.014;2022-07-25T08:10:03;14.07;;;6.35;;
62058;SDS011;48017;51.064;7.014;2022-07-25T08:12:28;7.53;;;5.97;;
62058;SDS011;48017;51.064;7.014;2022-07-25T08:14:54;11.52;;;5.90;;
62058;SDS011;48017;51.064;7.014;2022-07-25T08:17:19;11.32;;;5.43;;
62058;SDS011;48017;51.064;7.014;2022-07-25T08:19:45;12.18;;;6.10;;
62058;SDS011;48017;51.064;7.014;2022-07-25T08:22:10;12.20;;;5.50;;
62058;SDS011;48017;51.064;7.014;2022-07-25T08:24:35;12.18;;;5.85;;
62058;SDS011;48017;51.064;7.014;2022-07-25T08:27:01;9.68;;;5.65;;
62058;SDS011;48017;51.064;7.014;2022-07-25T08:29:26;15.45;;;6.28;;
62058;SDS011;48017;51.064;7.014;2022-07-25T08:31:52;9.70;;;5.45;;
62058;SDS011;48017;51.064;7.014;2022-07-25T08:34:17;17.27;;;5.78;;
62058;SDS011;48017;51.064;7.014;2022-07-25T08:36:46;13.02;;;5.75;;
62058;SDS011;48017;51.064;7.014;2022-07-25T08:39:11;42.28;;;7.00;;
62058;SDS011;48017;51.064;7.014;2022-07-25T08:41:38;8.68;;;5.07;;
62058;SDS011;48017;51.064;7.014;2022-07-25T08:44:05;12.30;;;5.20;;
62058;SDS011;48017;51.064;7.014;2022-07-25T08:46:32;10.02;;;5.28;;
62058;SDS011;48017;51.064;7.014;2022-07-25T08:48:58;12.23;;;5.47;;
62058;SDS011;48017;51.064;7.014;2022-07-25T08:51:23;6.57;;;4.80;;
62058;SDS011;48017;51.064;7.014;2022-07-25T08:53:49;9.10;;;5.18;;
62058;SDS011;48017;51.064;7.014;2022-07-25T08:56:15;8.02;;;5.10;;
62058;SDS011;48017;51.064;7.014;2022-07-25T08:58:41;5.72;;;4.75;;
62058;SDS011;48017;51.064;7.014;2022-07-25T09:01:06;10.38;;;5.10;;
62058;SDS011;48017;51.064;7.014;2022-07-25T09:03:32;12.45;;;5.18;;
62058;SDS011;48017;51.064;7.014;2022-07-25T09:05:58;7.88;;;4.95;;
62058;SDS011;48017;51.064;7.014;2022-07-25T09:08:24;7.97;;;4.75;;
62058;SDS011;48017;51.064;7.014;2022-07-25T09:10:50;7.25;;;4.68;;
62058;SDS011;48017;51.064;7.014;2022-07-25T09:13:17;10.20;;;4.80;;
62058;SDS011;48017;51.064;7.014;2022-07-25T09:15:46;9.70;;;4.78;;
62058;SDS011;48017;51.064;7.014;2022-07-25T09:18:12;9.35;;;4.80;;
62058;SDS011;48017;51.064;7.014;2022-07-25T09:23:08;6.25;;;4.90;;
62058;SDS011;48017;51.064;7.014;2022-07-25T09:25:34;8.68;;;4.80;;
62058;SDS011;48017;51.064;7.014;2022-07-25T09:28:13;7.50;;;4.88;;
62058;SDS011;48017;51.064;7.014;2022-07-25T09:30:54;9.13;;;5.18;;
62058;SDS011;48017;51.064;7.014;2022-07-25T09:33:22;6.82;;;5.00;;
62058;SDS011;48017;51.064;7.014;2022-07-25T09:38:14;7.90;;;4.80;;
62058;SDS011;48017;51.064;7.014;2022-07-25T09:40:41;7.68;;;4.65;;
62058;SDS011;48017;51.064;7.014;2022-07-25T09:43:21;7.47;;;4.80;;
62058;SDS011;48017;51.064;7.014;2022-07-25T09:45:48;8.95;;;5.47;;
62058;SDS011;48017;51.064;7.014;2022-07-25T09:50:42;10.35;;;5.53;;
62058;SDS011;48017;51.064;7.014;2022-07-25T09:53:07;7.43;;;5.03;;
62058;SDS011;48017;51.064;7.014;2022-07-25T09:55:33;20.52;;;4.90;;
62058;SDS011;48017;51.064;7.014;2022-07-25T09:57:58;7.32;;;5.10;;
62058;SDS011;48017;51.064;7.014;2022-07-25T10:00:24;8.85;;;5.20;;
62058;SDS011;48017;51.064;7.014;2022-07-25T10:02:55;9.82;;;5.00;;
62058;SDS011;48017;51.064;7.014;2022-07-25T10:05:30;8.00;;;4.70;;
62058;SDS011;48017;51.064;7.014;2022-07-25T10:08:20;7.47;;;5.10;;
62058;SDS011;48017;51.064;7.014;2022-07-25T10:10:47;7.10;;;5.10;;
62058;SDS011;48017;51.064;7.014;2022-07-25T10:13:14;10.73;;;5.57;;
62058;SDS011;48017;51.064;7.014;2022-07-25T10:15:43;8.70;;;5.03;;
62058;SDS011;48017;51.064;7.014;2022-07-25T10:18:13;9.43;;;5.30;;
62058;SDS011;48017;51.064;7.014;2022-07-25T10:20:41;10.20;;;5.40;;
62058;SDS011;48017;51.064;7.014;2022-07-25T10:23:23;12.68;;;5.43;;
62058;SDS011;48017;51.064;7.014;2022-07-25T10:28:43;13.82;;;8.65;;
62058;SDS011;48017;51.064;7.014;2022-07-25T10:33:52;8.98;;;5.38;;
62058;SDS011;48017;51.064;7.014;2022-07-25T10:36:20;9.70;;;5.20;;
62058;SDS011;48017;51.064;7.014;2022-07-25T10:38:49;23.83;;;5.53;;
62058;SDS011;48017;51.064;7.014;2022-07-25T10:41:15;10.50;;;5.70;;
62058;SDS011;48017;51.064;7.014;2022-07-25T10:43:42;10.38;;;5.43;;
62058;SDS011;48017;51.064;7.014;2022-07-25T10:46:11;9.88;;;5.28;;
62058;SDS011;48017;51.064;7.014;2022-07-25T10:48:42;9.52;;;5.50;;
62058;SDS011;48017;51.064;7.014;2022-07-25T10:51:09;8.98;;;5.90;;
62058;SDS011;48017;51.064;7.014;2022-07-25T10:56:05;7.18;;;5.03;;
62058;SDS011;48017;51.064;7.014;2022-07-25T11:01:12;10.73;;;5.70;;
62058;SDS011;48017;51.064;7.014;2022-07-25T11:03:39;9.05;;;5.18;;
62058;SDS011;48017;51.064;7.014;2022-07-25T11:06:08;12.63;;;5.45;;
62058;SDS011;48017;51.064;7.014;2022-07-25T11:08:34;11.38;;;5.13;;
62058;SDS011;48017;51.064;7.014;2022-07-25T11:11:00;9.35;;;5.15;;
62058;SDS011;48017;51.064;7.014;2022-07-25T11:13:26;8.13;;;5.50;;
62058;SDS011;48017;51.064;7.014;2022-07-25T11:15:55;12.23;;;5.22;;
62058;SDS011;48017;51.064;7.014;2022-07-25T11:18:32;10.35;;;5.00;;
62058;SDS011;48017;51.064;7.014;2022-07-25T11:21:00;10.18;;;5.50;;
62058;SDS011;48017;51.064;7.014;2022-07-25T11:23:27;8.65;;;5.00;;
62058;SDS011;48017;51.064;7.014;2022-07-25T11:26:02;9.70;;;4.95;;
62058;SDS011;48017;51.064;7.014;2022-07-25T11:28:47;13.10;;;5.30;;
62058;SDS011;48017;51.064;7.014;2022-07-25T11:31:14;9.90;;;4.63;;
62058;SDS011;48017;51.064;7.014;2022-07-25T11:33:43;11.13;;;4.57;;
62058;SDS011;48017;51.064;7.014;2022-07-25T11:36:11;10.85;;;4.35;;
62058;SDS011;48017;51.064;7.014;2022-07-25T11:38:37;7.63;;;4.78;;
62058;SDS011;48017;51.064;7.014;2022-07-25T11:43:30;7.18;;;4.35;;
62058;SDS011;48017;51.064;7.014;2022-07-25T11:45:59;9.38;;;4.30;;
62058;SDS011;48017;51.064;7.014;2022-07-25T11:48:31;7.50;;;4.22;;
62058;SDS011;48017;51.064;7.014;2022-07-25T11:51:13;12.50;;;4.90;;
62058;SDS011;48017;51.064;7.014;2022-07-25T11:53:44;8.90;;;4.30;;
62058;SDS011;48017;51.064;7.014;2022-07-25T11:56:16;13.48;;;4.47;;
62058;SDS011;48017;51.064;7.014;2022-07-25T11:58:55;6.82;;;4.13;;
62058;SDS011;48017;51.064;7.014;2022-07-25T12:01:22;8.68;;;3.92;;
62058;SDS011;48017;51.064;7.014;2022-07-25T12:03:49;18.30;;;3.80;;
62058;SDS011;48017;51.064;7.014;2022-07-25T12:06:14;7.47;;;3.95;;
62058;SDS011;48017;51.064;7.014;2022-07-25T12:08:40;6.20;;;3.75;;
62058;SDS011;48017;51.064;7.014;2022-07-25T12:11:19;9.05;;;3.60;;
62058;SDS011;48017;51.064;7.014;2022-07-25T12:13:47;5.57;;;3.30;;
62058;SDS011;48017;51.064;7.014;2022-07-25T12:16:13;7.18;;;3.50;;
62058;SDS011;48017;51.064;7.014;2022-07-25T12:18:39;5.93;;;3.58;;
62058;SDS011;48017;51.064;7.014;2022-07-25T12:21:05;12.57;;;3.92;;
62058;SDS011;48017;51.064;7.014;2022-07-25T12:23:30;6.82;;;3.60;;
62058;SDS011;48017;51.064;7.014;2022-07-25T12:25:56;6.65;;;3.75;;
62058;SDS011;48017;51.064;7.014;2022-07-25T12:28:21;8.77;;;4.13;;
62058;SDS011;48017;51.064;7.014;2022-07-25T12:30:47;6.40;;;3.90;;
62058;SDS011;48017;51.064;7.014;2022-07-25T12:33:13;5.93;;;3.45;;
62058;SDS011;48017;51.064;7.014;2022-07-25T12:35:39;5.88;;;3.50;;
62058;SDS011;48017;51.064;7.014;2022-07-25T12:40:32;6.65;;;3.10;;
62058;SDS011;48017;51.064;7.014;2022-07-25T12:42:57;11.18;;;3.42;;
62058;SDS011;48017;51.064;7.014;2022-07-25T12:45:23;5.20;;;3.20;;
62058;SDS011;48017;51.064;7.014;2022-07-25T12:47:49;7.50;;;3.10;;
62058;SDS011;48017;51.064;7.014;2022-07-25T12:50:15;9.93;;;3.20;;
62058;SDS011;48017;51.064;7.014;2022-07-25T12:52:42;9.25;;;3.30;;
62058;SDS011;48017;51.064;7.014;2022-07-25T12:55:10;6.63;;;3.30;;
62058;SDS011;48017;51.064;7.014;2022-07-25T12:57:38;9.13;;;3.53;;
62058;SDS011;48017;51.064;7.014;2022-07-25T13:00:04;11.07;;;3.35;;
62058;SDS011;48017;51.064;7.014;2022-07-25T13:02:32;10.05;;;3.17;;
62058;SDS011;48017;51.064;7.014;2022-07-25T13:04:58;9.88;;;3.20;;
62058;SDS011;48017;51.064;7.014;2022-07-25T13:07:23;7.65;;;2.90;;
62058;SDS011;48017;51.064;7.014;2022-07-25T13:09:49;12.05;;;3.10;;
62058;SDS011;48017;51.064;7.014;2022-07-25T13:12:14;11.05;;;2.67;;
62058;SDS011;48017;51.064;7.014;2022-07-25T13:14:40;9.57;;;2.92;;
62058;SDS011;48017;51.064;7.014;2022-07-25T13:17:05;8.27;;;2.70;;
62058;SDS011;48017;51.064;7.014;2022-07-25T13:19:31;9.63;;;2.90;;
62058;SDS011;48017;51.064;7.014;2022-07-25T13:21:56;9.85;;;2.65;;
62058;SDS011;48017;51.064;7.014;2022-07-25T13:24:22;6.82;;;2.63;;
62058;SDS011;48017;51.064;7.014;2022-07-25T13:26:47;8.57;;;2.90;;
62058;SDS011;48017;51.064;7.014;2022-07-25T13:29:13;13.13;;;2.80;;
62058;SDS011;48017;51.064;7.014;2022-07-25T13:31:38;7.68;;;2.33;;
62058;SDS011;48017;51.064;7.014;2022-07-25T13:34:05;7.10;;;2.65;;
62058;SDS011;48017;51.064;7.014;2022-07-25T13:36:31;7.65;;;2.50;;
62058;SDS011;48017;51.064;7.014;2022-07-25T13:38:57;4.88;;;2.60;;
62058;SDS011;48017;51.064;7.014;2022-07-25T13:41:23;6.15;;;2.60;;
62058;SDS011;48017;51.064;7.014;2022-07-25T13:43:48;7.30;;;2.60;;
62058;SDS011;48017;51.064;7.014;2022-07-25T13:46:14;4.35;;;1.92;;
62058;SDS011;48017;51.064;7.014;2022-07-25T13:48:39;8.60;;;2.10;;
62058;SDS011;48017;51.064;7.014;2022-07-25T13:51:05;6.75;;;2.28;;
62058;SDS011;48017;51.064;7.014;2022-07-25T13:53:30;4.60;;;1.95;;
62058;SDS011;48017;51.064;7.014;2022-07-25T13:55:56;11.20;;;2.28;;
62058;SDS011;48017;51.064;7.014;2022-07-25T13:58:22;7.90;;;2.00;;
62058;SDS011;48017;51.064;7.014;2022-07-25T14:00:48;10.95;;;2.55;;
62058;SDS011;48017;51.064;7.014;2022-07-25T14:03:13;11.50;;;2.10;;
62058;SDS011;48017;51.064;7.014;2022-07-25T14:05:39;9.30;;;1.95;;
62058;SDS011;48017;51.064;7.014;2022-07-25T14:08:04;6.25;;;2.10;;
62058;SDS011;48017;51.064;7.014;2022-07-25T14:10:30;9.52;;;1.83;;
62058;SDS011;48017;51.064;7.014;2022-07-25T14:12:56;8.88;;;1.95;;
62058;SDS011;48017;51.064;7.014;2022-07-25T14:15:21;6.85;;;1.85;;
62058;SDS011;48017;51.064;7.014;2022-07-25T14:17:46;6.47;;;1.70;;
62058;SDS011;48017;51.064;7.014;2022-07-25T14:20:12;4.80;;;1.80;;
62058;SDS011;48017;51.064;7.014;2022-07-25T14:22:38;4.00;;;1.73;;
62058;SDS011;48017;51.064;7.014;2022-07-25T14:25:06;5.50;;;1.90;;
62058;SDS011;48017;51.064;7.014;2022-07-25T14:27:32;11.20;;;1.93;;
62058;SDS011;48017;51.064;7.014;2022-07-25T14:29:58;5.05;;;1.63;;
62058;SDS011;48017;51.064;7.014;2022-07-25T14:32:23;7.47;;;2.00;;
62058;SDS011;48017;51.064;7.014;2022-07-25T14:34:49;6.80;;;1.95;;
62058;SDS011;48017;51.064;7.014;2022-07-25T14:37:17;6.78;;;2.05;;
62058;SDS011;48017;51.064;7.014;2022-07-25T14:39:44;5.85;;;2.17;;
62058;SDS011;48017;51.064;7.014;2022-07-25T14:42:09;6.47;;;1.73;;
62058;SDS011;48017;51.064;7.014;2022-07-25T14:44:38;10.52;;;1.90;;
62058;SDS011;48017;51.064;7.014;2022-07-25T14:47:05;7.40;;;1.98;;
62058;SDS011;48017;51.064;7.014;2022-07-25T14:49:31;7.55;;;2.15;;
62058;SDS011;48017;51.064;7.014;2022-07-25T14:51:57;9.60;;;1.92;;
62058;SDS011;48017;51.064;7.014;2022-07-25T14:54:22;5.30;;;1.80;;
62058;SDS011;48017;51.064;7.014;2022-07-25T14:56:52;8.70;;;1.88;;
62058;SDS011;48017;51.064;7.014;2022-07-25T14:59:17;5.30;;;2.10;;
62058;SDS011;48017;51.064;7.014;2022-07-25T15:01:43;5.50;;;1.75;;
62058;SDS011;48017;51.064;7.014;2022-07-25T15:04:08;9.43;;;2.17;;
62058;SDS011;48017;51.064;7.014;2022-07-25T15:06:34;12.13;;;1.90;;
62058;SDS011;48017;51.064;7.014;2022-07-25T15:08:59;11.35;;;2.47;;
62058;SDS011;48017;51.064;7.014;2022-07-25T15:11:25;9.88;;;2.03;;